Archival Weather

Norman Y Mineta San Jose Intl

San Jose, California (KSJC)

Report from: Saturday, September 30, 2023 5:53 AM PDT
Current time: Thursday, July 18, 2024 8:47 PM PDT

Current weather – Weather history – Daily summaries
Weather forecast

Temperature16.1°C (61.0°F)
Dew point12.8°C (55.0°F)
Winds 6 kts (3.1 m/s, 6.9 mph) North-Northwest (330°)
Visibility10 mi. (16.1 km)
Clouds Ceiling: Overcast 4,100 ft. (1,250 m)
Altimeter29.78 in.Hg (1008 mB)
Relative humidity81 %
Density altitude500 ft. (153 m)
Sea-level pressure100.8 kPa (1008 mB, 29.78 in.Hg)
Remarks Automated weather observing station with precipitation discriminator
Flight conditions Visual Meteorological Conditions
Raw dataKSJC 301253Z 33006KT 10SM OVC041 16/13 A2978 RMK AO2 SLP084 T01610128
An error has occurred. This application may no longer respond until reloaded. Reload 🗙